createdAt,value
2023-05-05T00:01:02.046Z,49.10
2023-05-05T00:03:29.143Z,48.70
2023-05-05T00:05:55.819Z,48.47
2023-05-05T00:08:22.574Z,48.92
2023-05-05T00:10:50.578Z,49.02
2023-05-05T00:13:18.226Z,48.97
2023-05-05T00:15:46.675Z,49.57
2023-05-05T00:18:16.296Z,49.58
2023-05-05T00:20:43.755Z,49.91
2023-05-05T00:23:10.248Z,50.23
2023-05-05T00:25:37.259Z,50.24
2023-05-05T00:28:03.996Z,50.57
2023-05-05T00:30:30.591Z,50.89
2023-05-05T00:32:57.488Z,51.74
2023-05-05T00:35:24.047Z,51.27
2023-05-05T00:37:50.605Z,54.06
2023-05-05T00:40:18.582Z,55.96
2023-05-05T00:42:47.315Z,54.66
2023-05-05T00:45:15.332Z,54.07
2023-05-05T00:47:44.902Z,53.44
2023-05-05T00:50:21.307Z,54.47
2023-05-05T00:52:48.230Z,54.38
2023-05-05T00:55:14.765Z,54.41
2023-05-05T00:57:41.362Z,54.25
2023-05-05T01:00:09.858Z,54.77
2023-05-05T01:02:36.769Z,55.25
2023-05-05T01:05:03.940Z,55.35
2023-05-05T01:07:44.730Z,55.27
2023-05-05T01:10:44.047Z,55.79
2023-05-05T01:13:29.846Z,56.74
2023-05-05T01:16:17.738Z,56.11
2023-05-05T01:19:00.745Z,56.90
2023-05-05T01:21:39.773Z,57.21
2023-05-05T01:24:21.105Z,56.95
2023-05-05T01:26:58.104Z,56.85
2023-05-05T01:29:46.237Z,57.62
2023-05-05T01:32:25.780Z,57.58
2023-05-05T01:35:02.751Z,58.31
2023-05-05T01:37:42.711Z,59.54
2023-05-05T01:40:12.779Z,59.79
2023-05-05T01:42:43.409Z,60.54
2023-05-05T01:45:12.745Z,61.58
2023-05-05T01:47:41.866Z,61.95
2023-05-05T01:50:10.997Z,62.40
2023-05-05T01:52:39.078Z,64.06
2023-05-05T01:55:08.386Z,65.52
2023-05-05T01:57:37.115Z,66.75
2023-05-05T02:00:04.472Z,66.84
2023-05-05T02:02:42.742Z,67.99
2023-05-05T02:05:10.036Z,68.83
2023-05-05T02:07:37.143Z,69.48
2023-05-05T02:10:06.722Z,70.10
2023-05-05T02:12:36.060Z,71.01
2023-05-05T02:15:03.430Z,71.56
2023-05-05T02:17:30.813Z,72.30
2023-05-05T02:19:59.074Z,73.16
2023-05-05T02:22:25.564Z,74.01
2023-05-05T02:24:52.154Z,74.64
2023-05-05T02:27:21.536Z,75.30
2023-05-05T02:29:50.337Z,75.63
2023-05-05T02:32:42.040Z,75.90
2023-05-05T02:35:17.833Z,76.44
2023-05-05T02:38:01.730Z,77.02
2023-05-05T02:40:34.468Z,78.05
2023-05-05T02:43:09.766Z,78.41
2023-05-05T02:45:36.400Z,78.89
2023-05-05T02:48:06.562Z,79.71
2023-05-05T02:50:37.722Z,80.39
2023-05-05T02:53:27.862Z,80.91
2023-05-05T02:56:01.763Z,81.44
2023-05-05T02:58:51.633Z,81.69
2023-05-05T03:01:43.548Z,82.40
2023-05-05T03:04:22.506Z,82.88
2023-05-05T03:06:56.422Z,83.47
2023-05-05T03:09:36.720Z,83.93
2023-05-05T03:12:09.956Z,84.50
2023-05-05T03:14:58.884Z,84.89
2023-05-05T03:17:30.770Z,85.27
2023-05-05T03:19:58.061Z,85.41
2023-05-05T03:22:24.692Z,85.68
2023-05-05T03:24:51.348Z,85.79
2023-05-05T03:27:21.625Z,86.00
2023-05-05T03:29:48.088Z,86.49
2023-05-05T03:32:15.954Z,86.84
2023-05-05T03:34:43.210Z,87.23
2023-05-05T03:37:09.882Z,87.57
2023-05-05T03:39:38.086Z,88.08
2023-05-05T03:42:05.837Z,88.38
2023-05-05T03:44:34.668Z,88.78
2023-05-05T03:47:01.095Z,89.62
2023-05-05T03:49:29.870Z,90.38
2023-05-05T03:51:57.154Z,90.29
2023-05-05T03:54:23.655Z,90.74
2023-05-05T03:56:51.158Z,91.08
2023-05-05T03:59:17.655Z,91.69
2023-05-05T04:01:45.221Z,91.98
2023-05-05T04:04:11.996Z,91.85
2023-05-05T04:06:38.764Z,92.18
2023-05-05T04:09:06.036Z,92.27
2023-05-05T04:11:32.695Z,92.43
2023-05-05T04:14:00.157Z,92.64
2023-05-05T04:16:28.763Z,93.01
2023-05-05T04:18:57.060Z,92.95
2023-05-05T04:21:23.550Z,92.61
2023-05-05T04:23:49.981Z,92.58
2023-05-05T04:26:16.418Z,92.79
2023-05-05T04:28:42.823Z,92.91
2023-05-05T04:31:10.412Z,93.17
2023-05-05T04:33:39.172Z,94.17
2023-05-05T04:36:05.922Z,93.92
2023-05-05T04:38:32.534Z,93.93
2023-05-05T04:41:00.513Z,93.82
2023-05-05T04:43:27.846Z,93.93
2023-05-05T04:45:55.853Z,93.88
2023-05-05T04:48:26.280Z,93.72
2023-05-05T04:50:52.824Z,93.63
2023-05-05T04:53:19.349Z,93.88
2023-05-05T04:55:45.925Z,93.92
2023-05-05T04:58:12.341Z,94.45
2023-05-05T05:00:38.759Z,94.56
2023-05-05T05:03:05.535Z,94.40
2023-05-05T05:05:32.818Z,93.92
2023-05-05T05:07:59.368Z,93.80
2023-05-05T05:10:26.341Z,93.74
2023-05-05T05:12:52.771Z,93.79
2023-05-05T05:15:20.218Z,93.97
2023-05-05T05:17:47.138Z,93.75
2023-05-05T05:20:13.959Z,93.85
2023-05-05T05:22:42.019Z,93.67
2023-05-05T05:25:12.965Z,93.83
2023-05-05T05:27:39.533Z,94.17
2023-05-05T05:30:07.578Z,94.51
2023-05-05T05:32:35.592Z,94.37
2023-05-05T05:35:02.497Z,94.17
2023-05-05T05:37:30.968Z,94.10
2023-05-05T05:39:58.498Z,93.79
2023-05-05T05:42:26.754Z,93.55
2023-05-05T05:44:53.284Z,93.79
2023-05-05T05:47:20.404Z,93.45
2023-05-05T05:49:46.948Z,93.52
2023-05-05T05:52:13.349Z,93.52
2023-05-05T05:54:39.880Z,93.06
2023-05-05T05:57:07.541Z,92.55
2023-05-05T05:59:33.962Z,92.36
2023-05-05T06:02:01.480Z,92.30
2023-05-05T06:04:28.146Z,91.83
2023-05-05T06:06:55.995Z,91.90
2023-05-05T06:09:22.519Z,91.42
2023-05-05T06:11:48.933Z,90.96
2023-05-05T06:14:16.630Z,90.79
2023-05-05T06:16:44.450Z,90.76
2023-05-05T06:19:15.353Z,90.80
2023-05-05T06:21:43.390Z,90.55
2023-05-05T06:24:10.287Z,90.11
2023-05-05T06:26:36.990Z,90.08
2023-05-05T06:29:03.609Z,89.51
2023-05-05T06:31:30.189Z,87.71
2023-05-05T06:33:56.639Z,87.10
2023-05-05T06:36:23.129Z,87.05
2023-05-05T06:38:50.661Z,85.09
2023-05-05T06:41:18.805Z,84.93
2023-05-05T06:43:45.204Z,83.84
2023-05-05T06:46:13.479Z,83.47
2023-05-05T06:48:39.937Z,82.64
2023-05-05T06:51:07.033Z,81.06
2023-05-05T06:53:33.847Z,80.65
2023-05-05T06:56:00.356Z,80.74
2023-05-05T06:58:27.019Z,80.84
2023-05-05T07:00:54.541Z,80.29
2023-05-05T07:03:21.479Z,79.93
2023-05-05T07:05:47.994Z,79.97
2023-05-05T07:08:14.404Z,80.67
2023-05-05T07:10:41.719Z,80.09
2023-05-05T07:13:08.279Z,79.84
2023-05-05T07:15:34.981Z,79.62
2023-05-05T07:18:01.411Z,79.04
2023-05-05T07:20:28.093Z,78.78
2023-05-05T07:22:54.534Z,78.79
2023-05-05T07:25:21.353Z,79.09
2023-05-05T07:27:47.843Z,78.54
2023-05-05T07:30:17.216Z,78.79
2023-05-05T07:32:44.695Z,78.04
2023-05-05T07:35:11.281Z,77.90
2023-05-05T07:37:37.982Z,77.83
2023-05-05T07:40:04.878Z,77.88
2023-05-05T07:42:31.330Z,77.32
2023-05-05T07:44:57.816Z,77.88
2023-05-05T07:47:24.296Z,77.76
2023-05-05T07:49:50.960Z,77.70
2023-05-05T07:52:17.361Z,76.85
2023-05-05T07:54:45.124Z,77.16
2023-05-05T07:57:11.953Z,76.98
2023-05-05T07:59:40.983Z,77.27
2023-05-05T08:02:07.475Z,76.73
2023-05-05T08:04:33.916Z,75.76
2023-05-05T08:07:00.334Z,75.49
2023-05-05T08:09:26.713Z,75.36
2023-05-05T08:11:53.265Z,74.96
2023-05-05T08:14:20.154Z,73.87
2023-05-05T08:16:46.517Z,73.37
2023-05-05T08:19:25.265Z,73.55
2023-05-05T08:21:56.079Z,73.34
2023-05-05T08:24:22.512Z,72.65
2023-05-05T08:26:49.163Z,72.24
2023-05-05T08:29:15.699Z,73.28
2023-05-05T08:31:42.126Z,72.73
2023-05-05T08:34:08.522Z,72.87
2023-05-05T08:36:34.990Z,73.00
2023-05-05T08:39:01.531Z,72.39
2023-05-05T08:41:28.397Z,71.59
2023-05-05T08:43:56.092Z,71.08
2023-05-05T08:46:24.521Z,70.44
2023-05-05T08:48:55.187Z,70.06
2023-05-05T08:51:22.800Z,68.44
2023-05-05T08:53:56.265Z,69.62
2023-05-05T08:56:27.076Z,68.75
2023-05-05T08:58:54.571Z,68.52
2023-05-05T09:01:22.106Z,66.04
2023-05-05T09:03:49.790Z,66.22
2023-05-05T09:06:16.398Z,66.29
2023-05-05T09:08:43.490Z,68.31
2023-05-05T09:11:09.910Z,68.01
2023-05-05T09:13:36.411Z,67.74
2023-05-05T09:16:03.034Z,67.84
2023-05-05T09:18:29.581Z,68.74
2023-05-05T09:20:57.504Z,69.77
2023-05-05T09:23:25.698Z,68.13
2023-05-05T09:26:07.925Z,66.41
2023-05-05T09:28:34.432Z,63.91
2023-05-05T09:31:15.657Z,63.48
2023-05-05T09:33:42.518Z,63.75
2023-05-05T09:36:09.044Z,62.72
2023-05-05T09:38:36.595Z,63.18
2023-05-05T09:41:03.118Z,61.67
2023-05-05T09:43:29.535Z,61.54
2023-05-05T09:46:09.466Z,60.72
2023-05-05T09:48:36.224Z,61.09
2023-05-05T09:51:02.716Z,60.65
2023-05-05T09:53:38.844Z,60.05
2023-05-05T09:56:05.757Z,59.95
2023-05-05T09:58:32.173Z,59.63
2023-05-05T10:00:58.980Z,61.22
2023-05-05T10:03:26.207Z,61.63
2023-05-05T10:05:54.025Z,61.38
2023-05-05T10:08:22.459Z,60.96
2023-05-05T10:10:54.293Z,59.53
2023-05-05T10:13:23.269Z,59.27
2023-05-05T10:15:52.058Z,59.17
2023-05-05T10:18:21.695Z,58.24
2023-05-05T10:20:52.036Z,56.20
2023-05-05T10:23:20.381Z,55.60
2023-05-05T10:25:54.024Z,54.74
2023-05-05T10:28:29.661Z,53.84
2023-05-05T10:30:58.436Z,53.78
2023-05-05T10:33:33.778Z,53.01
2023-05-05T10:36:02.943Z,51.76
2023-05-05T10:38:31.068Z,48.38
2023-05-05T10:41:01.898Z,48.97
2023-05-05T10:43:30.528Z,50.27
2023-05-05T10:45:57.918Z,50.85
2023-05-05T10:48:36.013Z,50.30
2023-05-05T10:51:23.919Z,50.71
2023-05-05T10:54:10.324Z,50.89
2023-05-05T10:56:41.117Z,51.17
2023-05-05T10:59:39.557Z,50.86
2023-05-05T11:02:25.951Z,50.86
2023-05-05T11:05:09.740Z,51.17
2023-05-05T11:07:37.349Z,51.54
2023-05-05T11:10:06.899Z,51.36
2023-05-05T11:13:01.837Z,51.66
2023-05-05T11:15:31.030Z,51.67
2023-05-05T11:17:58.812Z,50.75
2023-05-05T11:20:59.923Z,49.98
2023-05-05T11:23:26.702Z,50.59
2023-05-05T11:25:54.615Z,51.08
2023-05-05T11:28:31.335Z,50.59
2023-05-05T11:31:00.810Z,50.24
2023-05-05T11:33:38.086Z,50.99
2023-05-05T11:36:09.269Z,51.83
2023-05-05T11:39:06.751Z,52.42
2023-05-05T11:41:35.921Z,52.87
2023-05-05T11:44:16.407Z,52.51
2023-05-05T11:46:51.840Z,51.87
2023-05-05T11:49:28.142Z,52.60
2023-05-05T11:52:12.188Z,52.33
2023-05-05T11:54:50.189Z,53.03
2023-05-05T11:57:21.049Z,53.65
2023-05-05T11:59:51.090Z,54.13
2023-05-05T12:02:19.033Z,54.27
2023-05-05T12:04:46.908Z,53.96
2023-05-05T12:07:20.844Z,54.33
2023-05-05T12:09:48.844Z,53.18
2023-05-05T12:12:17.379Z,53.09
2023-05-05T12:14:52.472Z,53.70
2023-05-05T12:17:20.704Z,56.85
2023-05-05T12:19:49.340Z,58.18
2023-05-05T12:22:27.418Z,58.79
2023-05-05T12:24:59.191Z,58.07
2023-05-05T12:27:27.437Z,58.76
2023-05-05T12:30:11.758Z,57.32
2023-05-05T12:32:38.263Z,56.56
2023-05-05T12:35:07.825Z,54.59
2023-05-05T12:37:34.701Z,54.33
2023-05-05T12:40:01.204Z,54.57
2023-05-05T12:42:27.940Z,53.80
2023-05-05T12:44:54.403Z,53.75
2023-05-05T12:47:31.837Z,52.40
2023-05-05T12:50:00.087Z,51.88
2023-05-05T12:52:45.878Z,50.95
2023-05-05T12:55:13.043Z,51.19
2023-05-05T12:57:58.442Z,50.76
2023-05-05T13:00:25.581Z,50.32
2023-05-05T13:02:52.991Z,50.56
2023-05-05T13:05:38.141Z,51.14
2023-05-05T13:08:04.772Z,51.05
2023-05-05T13:10:31.416Z,50.65
2023-05-05T13:12:58.326Z,50.16
2023-05-05T13:15:25.791Z,50.34
2023-05-05T13:17:59.389Z,50.49
2023-05-05T13:20:26.271Z,50.59
2023-05-05T13:22:52.687Z,50.99
2023-05-05T13:25:19.081Z,50.97
2023-05-05T13:27:45.490Z,50.46
2023-05-05T13:30:12.415Z,50.89
2023-05-05T13:32:38.905Z,51.03
2023-05-05T13:35:06.150Z,52.30
2023-05-05T13:37:32.681Z,53.18
2023-05-05T13:40:00.222Z,53.69
2023-05-05T13:42:26.834Z,52.28
2023-05-05T13:44:53.700Z,51.70
2023-05-05T13:47:20.275Z,52.32
2023-05-05T13:49:46.887Z,53.74
2023-05-05T13:52:13.345Z,53.63
2023-05-05T13:54:39.957Z,53.13
2023-05-05T13:57:07.879Z,53.26
2023-05-05T13:59:35.379Z,53.73
2023-05-05T14:02:01.781Z,51.87
2023-05-05T14:04:28.302Z,51.92
2023-05-05T14:06:54.722Z,52.85
2023-05-05T14:09:21.196Z,58.35
2023-05-05T14:11:47.659Z,62.34
2023-05-05T14:14:14.006Z,63.61
2023-05-05T14:16:40.504Z,65.89
2023-05-05T14:19:07.019Z,67.45
2023-05-05T14:21:33.548Z,69.26
2023-05-05T14:23:59.985Z,67.38
2023-05-05T14:26:27.193Z,64.79
2023-05-05T14:28:53.646Z,69.16
2023-05-05T14:31:20.175Z,70.60
2023-05-05T14:33:46.612Z,73.23
2023-05-05T14:36:14.123Z,76.70
2023-05-05T14:38:41.992Z,79.01
2023-05-05T14:41:08.664Z,81.92
2023-05-05T14:43:36.658Z,83.99
2023-05-05T14:46:06.616Z,85.44
2023-05-05T14:48:33.937Z,87.00
2023-05-05T14:51:00.459Z,88.47
2023-05-05T14:53:27.000Z,89.96
2023-05-05T14:55:53.358Z,91.34
2023-05-05T14:58:22.291Z,92.69
2023-05-05T15:00:48.773Z,93.09
2023-05-05T15:03:15.295Z,93.33
2023-05-05T15:05:41.837Z,94.12
2023-05-05T15:08:08.259Z,94.68
2023-05-05T15:10:34.988Z,95.08
2023-05-05T15:13:01.467Z,95.32
2023-05-05T15:15:27.901Z,95.27
2023-05-05T15:17:54.342Z,94.67
2023-05-05T15:20:21.010Z,94.66
2023-05-05T15:22:48.994Z,94.05
2023-05-05T15:25:16.988Z,93.58
2023-05-05T15:27:43.375Z,93.91
2023-05-05T15:30:11.377Z,93.54
2023-05-05T15:32:37.871Z,93.82
2023-05-05T15:35:04.546Z,93.68
2023-05-05T15:37:30.948Z,93.63
2023-05-05T15:39:57.463Z,93.05
2023-05-05T15:42:24.834Z,93.10
2023-05-05T15:44:51.745Z,93.17
2023-05-05T15:47:18.383Z,93.59
2023-05-05T15:49:44.905Z,93.49
2023-05-05T15:52:12.663Z,93.43
2023-05-05T15:54:39.096Z,93.38
2023-05-05T15:57:05.484Z,94.14
2023-05-05T15:59:31.872Z,94.67
2023-05-05T16:01:58.246Z,95.68
2023-05-05T16:04:24.666Z,96.51
2023-05-05T16:06:51.107Z,96.08
2023-05-05T16:09:17.631Z,96.51
2023-05-05T16:11:44.309Z,96.88
2023-05-05T16:14:11.221Z,97.33
2023-05-05T16:16:37.595Z,97.35
2023-05-05T16:19:04.341Z,97.42
2023-05-05T16:21:30.890Z,98.06
2023-05-05T16:23:57.867Z,98.53
2023-05-05T16:26:24.257Z,98.77
2023-05-05T16:28:50.748Z,99.35
2023-05-05T16:31:17.236Z,100.00
2023-05-05T16:33:43.832Z,100.00
2023-05-05T16:36:12.222Z,100.00
2023-05-05T16:38:39.562Z,99.95
2023-05-05T16:41:08.964Z,99.60
2023-05-05T16:43:38.124Z,99.16
2023-05-05T16:46:04.699Z,97.97
2023-05-05T16:48:31.150Z,97.34
2023-05-05T16:50:57.867Z,96.31
2023-05-05T16:53:25.187Z,96.13
2023-05-05T16:55:52.587Z,96.59
2023-05-05T16:58:20.802Z,96.68
2023-05-05T17:00:48.950Z,97.36
2023-05-05T17:03:16.504Z,97.83
2023-05-05T17:05:44.064Z,98.03
2023-05-05T17:08:17.011Z,98.56
2023-05-05T17:10:45.285Z,98.77
2023-05-05T17:13:13.141Z,99.02
2023-05-05T17:15:40.556Z,98.88
2023-05-05T17:18:08.269Z,98.84
2023-05-05T17:20:35.000Z,98.39
2023-05-05T17:23:05.347Z,98.45
2023-05-05T17:25:31.735Z,98.48
2023-05-05T17:27:58.531Z,98.13
2023-05-05T17:30:25.123Z,97.97
2023-05-05T17:32:52.641Z,98.21
2023-05-05T17:35:19.292Z,98.46
2023-05-05T17:37:45.736Z,98.69
2023-05-05T17:40:12.228Z,99.12
2023-05-05T17:42:38.870Z,99.34
2023-05-05T17:45:06.409Z,99.62
2023-05-05T17:47:32.945Z,99.73
2023-05-05T17:49:59.464Z,99.96
2023-05-05T17:52:26.058Z,100.00
2023-05-05T17:54:52.439Z,99.78
2023-05-05T17:57:20.955Z,99.82
2023-05-05T17:59:49.517Z,100.00
2023-05-05T18:02:16.794Z,100.00
2023-05-05T18:04:43.344Z,100.00
2023-05-05T18:07:11.821Z,100.00
2023-05-05T18:09:38.848Z,100.00
2023-05-05T18:12:07.616Z,100.00
2023-05-05T18:14:34.056Z,100.00
2023-05-05T18:17:01.673Z,100.00
2023-05-05T18:19:28.044Z,100.00
2023-05-05T18:21:54.458Z,100.00
2023-05-05T18:24:21.016Z,100.00
2023-05-05T18:26:50.101Z,100.00
2023-05-05T18:29:21.386Z,100.00
2023-05-05T18:31:49.168Z,100.00
2023-05-05T18:34:16.648Z,100.00
2023-05-05T18:36:43.070Z,100.00
2023-05-05T18:39:10.137Z,100.00
2023-05-05T18:41:37.005Z,100.00
2023-05-05T18:44:03.790Z,100.00
2023-05-05T18:46:30.300Z,100.00
2023-05-05T18:48:56.994Z,100.00
2023-05-05T18:51:23.823Z,100.00
2023-05-05T18:53:50.309Z,100.00
2023-05-05T18:56:17.034Z,100.00
2023-05-05T18:58:43.434Z,100.00
2023-05-05T19:01:09.845Z,100.00
2023-05-05T19:03:36.585Z,100.00
2023-05-05T19:06:06.966Z,100.00
2023-05-05T19:08:33.514Z,100.00
2023-05-05T19:11:00.212Z,100.00
2023-05-05T19:13:26.650Z,100.00
2023-05-05T19:15:54.406Z,100.00
2023-05-05T19:18:20.959Z,100.00
2023-05-05T19:20:47.350Z,100.00
2023-05-05T19:23:13.731Z,100.00
2023-05-05T19:25:40.656Z,100.00
2023-05-05T19:28:07.028Z,100.00
2023-05-05T19:30:33.423Z,100.00
2023-05-05T19:32:59.854Z,100.00
2023-05-05T19:35:26.684Z,100.00
2023-05-05T19:37:53.706Z,100.00
2023-05-05T19:40:20.578Z,100.00
2023-05-05T19:42:47.429Z,100.00
2023-05-05T19:45:13.808Z,100.00
2023-05-05T19:47:40.235Z,100.00
2023-05-05T19:50:07.229Z,100.00
2023-05-05T19:52:36.425Z,100.00
2023-05-05T19:55:02.888Z,100.00
2023-05-05T19:57:29.710Z,100.00
2023-05-05T19:59:56.108Z,100.00
2023-05-05T20:02:26.332Z,100.00
2023-05-05T20:04:52.756Z,100.00
2023-05-05T20:07:19.260Z,100.00
2023-05-05T20:09:45.934Z,100.00
2023-05-05T20:12:12.330Z,100.00
2023-05-05T20:14:38.942Z,100.00
2023-05-05T20:17:05.474Z,100.00
2023-05-05T20:19:32.095Z,100.00
2023-05-05T20:21:58.569Z,100.00
2023-05-05T20:24:25.134Z,100.00
2023-05-05T20:26:51.501Z,100.00
2023-05-05T20:29:19.553Z,100.00
2023-05-05T20:31:46.179Z,100.00
2023-05-05T20:34:12.614Z,100.00
2023-05-05T20:36:39.476Z,100.00
2023-05-05T20:39:07.251Z,100.00
2023-05-05T20:41:35.951Z,100.00
2023-05-05T20:44:02.339Z,100.00
2023-05-05T20:46:28.740Z,100.00
2023-05-05T20:48:55.529Z,100.00
2023-05-05T20:51:21.994Z,100.00
2023-05-05T20:53:48.667Z,100.00
2023-05-05T20:56:15.055Z,100.00
2023-05-05T20:58:41.448Z,100.00
2023-05-05T21:01:07.881Z,100.00
2023-05-05T21:03:36.188Z,100.00
2023-05-05T21:06:02.700Z,100.00
2023-05-05T21:08:30.503Z,100.00
2023-05-05T21:10:56.884Z,100.00
2023-05-05T21:13:23.366Z,100.00
2023-05-05T21:15:50.142Z,100.00
2023-05-05T21:18:16.747Z,100.00
2023-05-05T21:20:43.141Z,100.00
2023-05-05T21:23:10.050Z,100.00
2023-05-05T21:25:37.391Z,100.00
2023-05-05T21:28:04.032Z,100.00
2023-05-05T21:30:30.526Z,100.00
2023-05-05T21:32:57.189Z,100.00
2023-05-05T21:35:23.651Z,100.00
2023-05-05T21:37:50.093Z,100.00
2023-05-05T21:40:16.557Z,100.00
2023-05-05T21:42:43.128Z,100.00
2023-05-05T21:45:10.947Z,100.00
2023-05-05T21:47:37.410Z,100.00
2023-05-05T21:50:04.114Z,100.00
2023-05-05T21:52:30.746Z,100.00
2023-05-05T21:54:57.108Z,100.00
2023-05-05T21:57:23.801Z,100.00
2023-05-05T21:59:50.825Z,100.00
2023-05-05T22:02:17.338Z,100.00
2023-05-05T22:04:48.517Z,100.00
2023-05-05T22:07:15.324Z,100.00
2023-05-05T22:09:41.764Z,100.00
2023-05-05T22:12:08.296Z,100.00
2023-05-05T22:14:34.672Z,100.00
2023-05-05T22:17:01.110Z,100.00
2023-05-05T22:19:27.495Z,100.00
2023-05-05T22:21:54.353Z,100.00
2023-05-05T22:24:20.801Z,100.00
2023-05-05T22:26:47.439Z,100.00
2023-05-05T22:29:13.834Z,100.00
2023-05-05T22:31:40.387Z,100.00
2023-05-05T22:34:06.945Z,100.00
2023-05-05T22:36:33.362Z,100.00
2023-05-05T22:38:59.741Z,100.00
2023-05-05T22:41:26.202Z,100.00
2023-05-05T22:43:52.648Z,100.00
2023-05-05T22:46:19.117Z,100.00
2023-05-05T22:48:46.566Z,100.00
2023-05-05T22:51:13.319Z,100.00
2023-05-05T22:53:40.206Z,100.00
2023-05-05T22:56:07.028Z,100.00
2023-05-05T22:58:33.708Z,100.00
2023-05-05T23:01:00.142Z,100.00
2023-05-05T23:03:26.673Z,100.00
2023-05-05T23:05:53.090Z,100.00
2023-05-05T23:08:20.424Z,100.00
2023-05-05T23:10:47.027Z,100.00
2023-05-05T23:13:13.480Z,100.00
2023-05-05T23:15:40.931Z,100.00
2023-05-05T23:18:07.439Z,100.00
2023-05-05T23:20:33.946Z,100.00
2023-05-05T23:23:00.761Z,100.00
2023-05-05T23:25:27.193Z,100.00
2023-05-05T23:27:53.744Z,100.00
2023-05-05T23:30:20.416Z,100.00
2023-05-05T23:32:46.818Z,100.00
2023-05-05T23:35:13.350Z,100.00
2023-05-05T23:37:39.756Z,100.00
2023-05-05T23:40:06.814Z,100.00
2023-05-05T23:42:33.342Z,100.00
2023-05-05T23:44:59.759Z,100.00
2023-05-05T23:47:26.222Z,100.00
2023-05-05T23:49:52.637Z,100.00
2023-05-05T23:52:19.134Z,100.00
2023-05-05T23:54:45.989Z,100.00
2023-05-05T23:57:12.349Z,100.00
2023-05-05T23:59:39.233Z,100.00
